logo
Search for airport 
image banner adimage banner adimage banner ad
image banner ad

NZFR - Fox River

Located in Fox Glacier Township, New Zealand

ICAO - , IATA -

Data provided by Airmate  

General information

Coordinates: S43°28'7" E170°0'7"
Elevation is 508 feet MSL.
Magnetic variation is +24° East
View others Airports in West Coast Region

Operational data

Special qualification required
Current time UTC:
Current local time:
Weather at : - ( 0 km )
METAR: TJBQ 191550Z 05010G14KT 10SM SCT019 28/22 A2999
View NOTAMs / SUP AIP / TFR affecting this airport [VIEW]
Communications frequencies: [VIEW]

Runways:

Airport contact information

Address: Fox Glacier Township New Zealand

Satellite view of NZFR